sensor_id;sensor_type;location;lat;lon;timestamp;pressure;altitude;pressure_sealevel;temperature;humidity
12987;BME280;58897;51.960;5.582;2023-03-04T00:02:03;102317.84;;;6.32;100.00
12987;BME280;58897;51.960;5.582;2023-03-04T00:04:30;102316.78;;;6.35;100.00
12987;BME280;58897;51.960;5.582;2023-03-04T00:06:57;102326.66;;;6.34;100.00
12987;BME280;58897;51.960;5.582;2023-03-04T00:09:23;102328.28;;;6.37;100.00
12987;BME280;58897;51.960;5.582;2023-03-04T00:11:50;102326.47;;;6.37;100.00
12987;BME280;58897;51.960;5.582;2023-03-04T00:14:16;102322.53;;;6.29;100.00
12987;BME280;58897;51.960;5.582;2023-03-04T00:16:43;102329.47;;;6.18;100.00
12987;BME280;58897;51.960;5.582;2023-03-04T00:19:09;102336.94;;;6.28;100.00
12987;BME280;58897;51.960;5.582;2023-03-04T00:21:36;102327.16;;;6.27;100.00
12987;BME280;58897;51.960;5.582;2023-03-04T00:24:03;102333.78;;;6.21;100.00
12987;BME280;58897;51.960;5.582;2023-03-04T00:26:29;102335.03;;;6.15;100.00
12987;BME280;58897;51.960;5.582;2023-03-04T00:28:56;102331.09;;;6.21;100.00
12987;BME280;58897;51.960;5.582;2023-03-04T00:31:22;102330.34;;;6.19;100.00
12987;BME280;58897;51.960;5.582;2023-03-04T00:33:49;102328.41;;;6.21;100.00
12987;BME280;58897;51.960;5.582;2023-03-04T00:36:15;102334.75;;;6.20;100.00
12987;BME280;58897;51.960;5.582;2023-03-04T00:38:42;102323.25;;;6.18;100.00
12987;BME280;58897;51.960;5.582;2023-03-04T00:41:08;102330.28;;;6.06;100.00
12987;BME280;58897;51.960;5.582;2023-03-04T00:43:35;102327.41;;;6.09;100.00
12987;BME280;58897;51.960;5.582;2023-03-04T00:46:01;102332.19;;;6.04;100.00
12987;BME280;58897;51.960;5.582;2023-03-04T00:48:28;102331.34;;;6.04;100.00
12987;BME280;58897;51.960;5.582;2023-03-04T00:50:54;102329.59;;;6.17;100.00
12987;BME280;58897;51.960;5.582;2023-03-04T00:53:21;102335.22;;;6.27;100.00
12987;BME280;58897;51.960;5.582;2023-03-04T00:55:49;102336.88;;;6.15;100.00
12987;BME280;58897;51.960;5.582;2023-03-04T00:58:16;102332.56;;;6.12;100.00
12987;BME280;58897;51.960;5.582;2023-03-04T01:00:42;102329.41;;;6.20;100.00
12987;BME280;58897;51.960;5.582;2023-03-04T01:03:09;102329.31;;;6.07;100.00
12987;BME280;58897;51.960;5.582;2023-03-04T01:05:35;102333.69;;;6.22;100.00
12987;BME280;58897;51.960;5.582;2023-03-04T01:08:02;102333.97;;;6.18;100.00
12987;BME280;58897;51.960;5.582;2023-03-04T01:10:29;102327.78;;;6.17;100.00
12987;BME280;58897;51.960;5.582;2023-03-04T01:12:56;102323.41;;;6.29;100.00
12987;BME280;58897;51.960;5.582;2023-03-04T01:15:22;102332.59;;;5.98;100.00
12987;BME280;58897;51.960;5.582;2023-03-04T01:17:49;102332.97;;;6.06;100.00
12987;BME280;58897;51.960;5.582;2023-03-04T01:20:16;102331.88;;;6.23;100.00
12987;BME280;58897;51.960;5.582;2023-03-04T01:22:42;102328.41;;;6.21;100.00
12987;BME280;58897;51.960;5.582;2023-03-04T01:25:09;102322.84;;;6.24;100.00
12987;BME280;58897;51.960;5.582;2023-03-04T01:27:35;102318.19;;;6.13;100.00
12987;BME280;58897;51.960;5.582;2023-03-04T01:30:03;102323.75;;;6.10;100.00
12987;BME280;58897;51.960;5.582;2023-03-04T01:32:29;102308.84;;;6.33;100.00
12987;BME280;58897;51.960;5.582;2023-03-04T01:34:56;102307.13;;;6.18;100.00
12987;BME280;58897;51.960;5.582;2023-03-04T01:37:22;102304.69;;;6.15;100.00
12987;BME280;58897;51.960;5.582;2023-03-04T01:39:49;102310.94;;;6.01;100.00
12987;BME280;58897;51.960;5.582;2023-03-04T01:42:20;102311.75;;;6.16;100.00
12987;BME280;58897;51.960;5.582;2023-03-04T01:44:48;102307.00;;;6.07;100.00
12987;BME280;58897;51.960;5.582;2023-03-04T01:47:17;102293.34;;;6.24;100.00
12987;BME280;58897;51.960;5.582;2023-03-04T01:49:47;102301.31;;;6.11;100.00
12987;BME280;58897;51.960;5.582;2023-03-04T01:52:16;102288.34;;;6.18;100.00
12987;BME280;58897;51.960;5.582;2023-03-04T01:54:43;102292.47;;;6.23;100.00
12987;BME280;58897;51.960;5.582;2023-03-04T01:57:16;102284.41;;;6.23;100.00
12987;BME280;58897;51.960;5.582;2023-03-04T01:59:43;102284.97;;;6.02;100.00
12987;BME280;58897;51.960;5.582;2023-03-04T02:02:10;102285.06;;;6.00;100.00
12987;BME280;58897;51.960;5.582;2023-03-04T02:04:38;102272.88;;;6.09;100.00
12987;BME280;58897;51.960;5.582;2023-03-04T02:07:06;102284.13;;;5.87;100.00
12987;BME280;58897;51.960;5.582;2023-03-04T02:09:32;102276.38;;;5.97;100.00
12987;BME280;58897;51.960;5.582;2023-03-04T02:12:00;102273.38;;;6.01;100.00
12987;BME280;58897;51.960;5.582;2023-03-04T02:14:27;102268.25;;;6.11;100.00
12987;BME280;58897;51.960;5.582;2023-03-04T02:16:54;102267.88;;;6.17;100.00
12987;BME280;58897;51.960;5.582;2023-03-04T02:19:45;102263.22;;;6.06;100.00
12987;BME280;58897;51.960;5.582;2023-03-04T02:22:14;102268.47;;;6.08;100.00
12987;BME280;58897;51.960;5.582;2023-03-04T02:24:47;102262.66;;;6.01;100.00
12987;BME280;58897;51.960;5.582;2023-03-04T02:27:16;102262.69;;;6.14;100.00
12987;BME280;58897;51.960;5.582;2023-03-04T02:29:42;102268.56;;;6.06;100.00
12987;BME280;58897;51.960;5.582;2023-03-04T02:32:11;102254.78;;;6.12;100.00
12987;BME280;58897;51.960;5.582;2023-03-04T02:34:44;102260.03;;;6.14;100.00
12987;BME280;58897;51.960;5.582;2023-03-04T02:37:12;102256.09;;;6.05;100.00
12987;BME280;58897;51.960;5.582;2023-03-04T02:39:41;102254.78;;;6.12;100.00
12987;BME280;58897;51.960;5.582;2023-03-04T02:42:08;102254.41;;;6.04;100.00
12987;BME280;58897;51.960;5.582;2023-03-04T02:44:37;102247.31;;;6.03;100.00
12987;BME280;58897;51.960;5.582;2023-03-04T02:47:06;102248.13;;;5.91;100.00
12987;BME280;58897;51.960;5.582;2023-03-04T02:49:35;102246.50;;;6.15;100.00
12987;BME280;58897;51.960;5.582;2023-03-04T02:52:03;102244.03;;;6.12;100.00
12987;BME280;58897;51.960;5.582;2023-03-04T02:54:31;102238.59;;;6.00;100.00
12987;BME280;58897;51.960;5.582;2023-03-04T02:57:01;102240.22;;;6.02;100.00
12987;BME280;58897;51.960;5.582;2023-03-04T02:59:29;102235.63;;;6.04;100.00
12987;BME280;58897;51.960;5.582;2023-03-04T03:01:56;102236.25;;;6.08;100.00
12987;BME280;58897;51.960;5.582;2023-03-04T03:04:23;102232.47;;;5.98;100.00
12987;BME280;58897;51.960;5.582;2023-03-04T03:06:50;102230.19;;;5.92;100.00
12987;BME280;58897;51.960;5.582;2023-03-04T03:09:19;102231.47;;;5.86;100.00
12987;BME280;58897;51.960;5.582;2023-03-04T03:11:45;102233.34;;;5.98;100.00
12987;BME280;58897;51.960;5.582;2023-03-04T03:14:12;102226.91;;;6.01;100.00
12987;BME280;58897;51.960;5.582;2023-03-04T03:16:38;102232.47;;;5.98;100.00
12987;BME280;58897;51.960;5.582;2023-03-04T03:19:05;102224.06;;;5.90;100.00
12987;BME280;58897;51.960;5.582;2023-03-04T03:21:32;102226.22;;;5.97;100.00
12987;BME280;58897;51.960;5.582;2023-03-04T03:23:58;102218.66;;;6.04;100.00
12987;BME280;58897;51.960;5.582;2023-03-04T03:26:25;102219.06;;;5.98;100.00
12987;BME280;58897;51.960;5.582;2023-03-04T03:28:51;102221.84;;;5.96;100.00
12987;BME280;58897;51.960;5.582;2023-03-04T03:31:18;102208.63;;;5.79;100.00
12987;BME280;58897;51.960;5.582;2023-03-04T03:33:45;102220.31;;;5.92;100.00
12987;BME280;58897;51.960;5.582;2023-03-04T03:36:12;102211.81;;;5.86;100.00
12987;BME280;58897;51.960;5.582;2023-03-04T03:38:39;102220.75;;;5.86;100.00
12987;BME280;58897;51.960;5.582;2023-03-04T03:41:05;102213.50;;;6.01;100.00
12987;BME280;58897;51.960;5.582;2023-03-04T03:43:31;102206.91;;;5.92;100.00
12987;BME280;58897;51.960;5.582;2023-03-04T03:45:58;102202.66;;;6.02;100.00
12987;BME280;58897;51.960;5.582;2023-03-04T03:48:24;102210.31;;;6.08;100.00
12987;BME280;58897;51.960;5.582;2023-03-04T03:50:51;102211.72;;;5.87;100.00
12987;BME280;58897;51.960;5.582;2023-03-04T03:53:17;102206.16;;;5.90;100.00
12987;BME280;58897;51.960;5.582;2023-03-04T03:55:44;102208.16;;;5.87;100.00
12987;BME280;58897;51.960;5.582;2023-03-04T03:58:10;102219.81;;;6.00;100.00
12987;BME280;58897;51.960;5.582;2023-03-04T04:00:37;102214.56;;;5.84;100.00
12987;BME280;58897;51.960;5.582;2023-03-04T04:03:03;102215.63;;;5.96;100.00
12987;BME280;58897;51.960;5.582;2023-03-04T04:05:30;102214.88;;;5.94;100.00
12987;BME280;58897;51.960;5.582;2023-03-04T04:07:57;102218.31;;;5.96;100.00
12987;BME280;58897;51.960;5.582;2023-03-04T04:10:23;102216.94;;;6.03;100.00
12987;BME280;58897;51.960;5.582;2023-03-04T04:12:50;102219.16;;;5.96;100.00
12987;BME280;58897;51.960;5.582;2023-03-04T04:15:16;102216.00;;;5.90;100.00
12987;BME280;58897;51.960;5.582;2023-03-04T04:17:43;102215.50;;;5.97;100.00
12987;BME280;58897;51.960;5.582;2023-03-04T04:20:10;102227.31;;;5.95;100.00
12987;BME280;58897;51.960;5.582;2023-03-04T04:22:36;102215.25;;;5.88;100.00
12987;BME280;58897;51.960;5.582;2023-03-04T04:25:03;102223.31;;;5.88;100.00
12987;BME280;58897;51.960;5.582;2023-03-04T04:27:30;102222.13;;;5.92;100.00
12987;BME280;58897;51.960;5.582;2023-03-04T04:29:56;102227.97;;;5.98;100.00
12987;BME280;58897;51.960;5.582;2023-03-04T04:32:23;102215.31;;;6.00;100.00
12987;BME280;58897;51.960;5.582;2023-03-04T04:34:49;102221.94;;;5.95;100.00
12987;BME280;58897;51.960;5.582;2023-03-04T04:37:16;102228.88;;;5.85;100.00
12987;BME280;58897;51.960;5.582;2023-03-04T04:39:42;102227.41;;;5.93;100.00
12987;BME280;58897;51.960;5.582;2023-03-04T04:42:10;102224.38;;;5.85;100.00
12987;BME280;58897;51.960;5.582;2023-03-04T04:44:36;102231.25;;;5.89;100.00
12987;BME280;58897;51.960;5.582;2023-03-04T04:47:05;102216.50;;;5.96;100.00
12987;BME280;58897;51.960;5.582;2023-03-04T04:49:32;102220.63;;;5.88;100.00
12987;BME280;58897;51.960;5.582;2023-03-04T04:51:59;102229.03;;;5.82;100.00
12987;BME280;58897;51.960;5.582;2023-03-04T04:54:26;102228.47;;;5.91;100.00
12987;BME280;58897;51.960;5.582;2023-03-04T04:56:52;102230.47;;;5.87;100.00
12987;BME280;58897;51.960;5.582;2023-03-04T04:59:19;102224.72;;;5.79;100.00
12987;BME280;58897;51.960;5.582;2023-03-04T05:01:46;102225.78;;;5.91;100.00
12987;BME280;58897;51.960;5.582;2023-03-04T05:04:12;102239.41;;;5.88;100.00
12987;BME280;58897;51.960;5.582;2023-03-04T05:06:39;102230.59;;;5.72;100.00
12987;BME280;58897;51.960;5.582;2023-03-04T05:09:06;102230.88;;;5.81;100.00
12987;BME280;58897;51.960;5.582;2023-03-04T05:11:32;102222.44;;;5.87;100.00
12987;BME280;58897;51.960;5.582;2023-03-04T05:13:59;102228.56;;;5.89;100.00
12987;BME280;58897;51.960;5.582;2023-03-04T05:16:25;102232.97;;;5.90;100.00
12987;BME280;58897;51.960;5.582;2023-03-04T05:18:52;102232.84;;;5.92;100.00
12987;BME280;58897;51.960;5.582;2023-03-04T05:21:18;102225.50;;;5.81;100.00
12987;BME280;58897;51.960;5.582;2023-03-04T05:23:45;102231.84;;;5.94;100.00
12987;BME280;58897;51.960;5.582;2023-03-04T05:26:14;102235.25;;;5.96;100.00
12987;BME280;58897;51.960;5.582;2023-03-04T05:28:41;102229.34;;;5.91;100.00
12987;BME280;58897;51.960;5.582;2023-03-04T05:31:07;102233.28;;;5.86;100.00
12987;BME280;58897;51.960;5.582;2023-03-04T05:33:34;102230.78;;;5.69;100.00
12987;BME280;58897;51.960;5.582;2023-03-04T05:36:02;102229.25;;;5.79;100.00
12987;BME280;58897;51.960;5.582;2023-03-04T05:38:29;102228.78;;;5.86;100.00
12987;BME280;58897;51.960;5.582;2023-03-04T05:40:58;102230.69;;;5.70;100.00
12987;BME280;58897;51.960;5.582;2023-03-04T05:43:26;102240.19;;;5.61;100.00
12987;BME280;58897;51.960;5.582;2023-03-04T05:45:53;102227.91;;;5.72;100.00
12987;BME280;58897;51.960;5.582;2023-03-04T05:48:20;102229.63;;;5.87;100.00
12987;BME280;58897;51.960;5.582;2023-03-04T05:50:52;102236.25;;;5.67;100.00
12987;BME280;58897;51.960;5.582;2023-03-04T05:53:18;102240.94;;;5.63;100.00
12987;BME280;58897;51.960;5.582;2023-03-04T05:55:45;102235.00;;;5.73;100.00
12987;BME280;58897;51.960;5.582;2023-03-04T05:58:13;102237.47;;;5.90;100.00
12987;BME280;58897;51.960;5.582;2023-03-04T06:00:40;102233.66;;;5.94;100.00
12987;BME280;58897;51.960;5.582;2023-03-04T06:03:12;102230.59;;;5.86;100.00
12987;BME280;58897;51.960;5.582;2023-03-04T06:05:39;102226.09;;;5.72;100.00
12987;BME280;58897;51.960;5.582;2023-03-04T06:08:06;102228.56;;;5.75;100.00
12987;BME280;58897;51.960;5.582;2023-03-04T06:10:32;102239.50;;;5.72;100.00
12987;BME280;58897;51.960;5.582;2023-03-04T06:12:59;102234.38;;;5.82;100.00
12987;BME280;58897;51.960;5.582;2023-03-04T06:15:25;102244.16;;;5.83;100.00
12987;BME280;58897;51.960;5.582;2023-03-04T06:17:52;102237.38;;;5.77;100.00
12987;BME280;58897;51.960;5.582;2023-03-04T06:20:18;102239.97;;;5.79;100.00
12987;BME280;58897;51.960;5.582;2023-03-04T06:22:45;102249.03;;;5.76;100.00
12987;BME280;58897;51.960;5.582;2023-03-04T06:25:11;102238.44;;;5.89;100.00
12987;BME280;58897;51.960;5.582;2023-03-04T06:27:38;102242.44;;;5.82;100.00
12987;BME280;58897;51.960;5.582;2023-03-04T06:30:05;102246.47;;;5.75;100.00
12987;BME280;58897;51.960;5.582;2023-03-04T06:32:32;102247.44;;;5.74;100.00
12987;BME280;58897;51.960;5.582;2023-03-04T06:34:58;102252.13;;;5.70;100.00
12987;BME280;58897;51.960;5.582;2023-03-04T06:37:25;102253.66;;;5.74;100.00
12987;BME280;58897;51.960;5.582;2023-03-04T06:39:51;102245.03;;;5.69;100.00
12987;BME280;58897;51.960;5.582;2023-03-04T06:42:18;102244.75;;;5.74;100.00
12987;BME280;58897;51.960;5.582;2023-03-04T06:44:44;102243.13;;;5.85;100.00
12987;BME280;58897;51.960;5.582;2023-03-04T06:47:11;102255.19;;;5.78;100.00
12987;BME280;58897;51.960;5.582;2023-03-04T06:49:37;102239.00;;;5.80;100.00
12987;BME280;58897;51.960;5.582;2023-03-04T06:52:04;102243.41;;;5.81;100.00
12987;BME280;58897;51.960;5.582;2023-03-04T06:54:30;102256.06;;;5.79;100.00
12987;BME280;58897;51.960;5.582;2023-03-04T06:56:57;102253.00;;;5.85;100.00
12987;BME280;58897;51.960;5.582;2023-03-04T06:59:23;102259.03;;;5.88;100.00
12987;BME280;58897;51.960;5.582;2023-03-04T07:01:50;102252.31;;;5.95;100.00
12987;BME280;58897;51.960;5.582;2023-03-04T07:04:16;102258.44;;;5.97;100.00
12987;BME280;58897;51.960;5.582;2023-03-04T07:06:43;102259.50;;;5.95;100.00
12987;BME280;58897;51.960;5.582;2023-03-04T07:09:09;102259.97;;;5.87;100.00
12987;BME280;58897;51.960;5.582;2023-03-04T07:11:36;102257.47;;;5.98;100.00
12987;BME280;58897;51.960;5.582;2023-03-04T07:14:02;102258.41;;;6.11;100.00
12987;BME280;58897;51.960;5.582;2023-03-04T07:16:29;102271.09;;;5.95;100.00
12987;BME280;58897;51.960;5.582;2023-03-04T07:18:55;102263.59;;;6.00;100.00
12987;BME280;58897;51.960;5.582;2023-03-04T07:21:22;102278.47;;;5.92;100.00
12987;BME280;58897;51.960;5.582;2023-03-04T07:23:49;102277.00;;;6.00;100.00
12987;BME280;58897;51.960;5.582;2023-03-04T07:26:16;102276.84;;;5.89;100.00
12987;BME280;58897;51.960;5.582;2023-03-04T07:28:43;102276.94;;;6.02;100.00
12987;BME280;58897;51.960;5.582;2023-03-04T07:31:22;102274.03;;;6.05;100.00
12987;BME280;58897;51.960;5.582;2023-03-04T07:33:50;102284.09;;;6.01;100.00
12987;BME280;58897;51.960;5.582;2023-03-04T07:36:17;102279.56;;;6.16;100.00
12987;BME280;58897;51.960;5.582;2023-03-04T07:38:46;102282.34;;;6.14;100.00
12987;BME280;58897;51.960;5.582;2023-03-04T07:41:12;102284.56;;;6.35;100.00
12987;BME280;58897;51.960;5.582;2023-03-04T07:43:39;102283.47;;;6.51;100.00
12987;BME280;58897;51.960;5.582;2023-03-04T07:46:06;102277.22;;;6.90;100.00
12987;BME280;58897;51.960;5.582;2023-03-04T07:48:33;102281.59;;;6.78;100.00
12987;BME280;58897;51.960;5.582;2023-03-04T07:51:03;102279.72;;;6.54;100.00
12987;BME280;58897;51.960;5.582;2023-03-04T07:53:31;102280.88;;;6.50;100.00
12987;BME280;58897;51.960;5.582;2023-03-04T07:55:58;102282.00;;;6.33;100.00
12987;BME280;58897;51.960;5.582;2023-03-04T07:58:27;102275.84;;;6.58;100.00
12987;BME280;58897;51.960;5.582;2023-03-04T08:00:54;102278.88;;;6.66;100.00
12987;BME280;58897;51.960;5.582;2023-03-04T08:03:20;102280.50;;;6.68;100.00
12987;BME280;58897;51.960;5.582;2023-03-04T08:05:47;102281.72;;;6.77;100.00
12987;BME280;58897;51.960;5.582;2023-03-04T08:08:14;102281.66;;;7.04;100.00
12987;BME280;58897;51.960;5.582;2023-03-04T08:10:43;102289.59;;;6.93;100.00
12987;BME280;58897;51.960;5.582;2023-03-04T08:13:10;102284.97;;;6.95;100.00
12987;BME280;58897;51.960;5.582;2023-03-04T08:15:40;102286.78;;;6.94;100.00
12987;BME280;58897;51.960;5.582;2023-03-04T08:18:07;102295.84;;;7.06;100.00
12987;BME280;58897;51.960;5.582;2023-03-04T08:20:33;102293.97;;;6.94;100.00
12987;BME280;58897;51.960;5.582;2023-03-04T08:23:00;102283.69;;;7.00;100.00
12987;BME280;58897;51.960;5.582;2023-03-04T08:25:27;102286.91;;;7.18;100.00
12987;BME280;58897;51.960;5.582;2023-03-04T08:27:53;102286.91;;;7.05;100.00
12987;BME280;58897;51.960;5.582;2023-03-04T08:30:20;102290.06;;;7.24;100.00
12987;BME280;58897;51.960;5.582;2023-03-04T08:32:46;102284.44;;;7.27;100.00
12987;BME280;58897;51.960;5.582;2023-03-04T08:35:13;102286.91;;;7.43;100.00
12987;BME280;58897;51.960;5.582;2023-03-04T08:37:39;102293.16;;;7.43;100.00
12987;BME280;58897;51.960;5.582;2023-03-04T08:40:06;102295.53;;;7.23;100.00
12987;BME280;58897;51.960;5.582;2023-03-04T08:42:33;102285.09;;;7.18;100.00
12987;BME280;58897;51.960;5.582;2023-03-04T08:44:59;102293.38;;;7.53;100.00
12987;BME280;58897;51.960;5.582;2023-03-04T08:47:26;102295.81;;;7.81;100.00
12987;BME280;58897;51.960;5.582;2023-03-04T08:49:52;102292.84;;;7.61;100.00
12987;BME280;58897;51.960;5.582;2023-03-04T08:52:19;102292.19;;;7.44;100.00
12987;BME280;58897;51.960;5.582;2023-03-04T08:54:46;102296.28;;;7.50;100.00
12987;BME280;58897;51.960;5.582;2023-03-04T08:57:12;102285.31;;;7.66;100.00
12987;BME280;58897;51.960;5.582;2023-03-04T08:59:39;102285.03;;;7.94;100.00
12987;BME280;58897;51.960;5.582;2023-03-04T09:02:06;102279.63;;;7.94;100.00
12987;BME280;58897;51.960;5.582;2023-03-04T09:04:32;102284.72;;;7.86;100.00
12987;BME280;58897;51.960;5.582;2023-03-04T09:06:59;102279.34;;;7.86;100.00
12987;BME280;58897;51.960;5.582;2023-03-04T09:09:25;102275.38;;;8.15;100.00
12987;BME280;58897;51.960;5.582;2023-03-04T09:11:52;102264.59;;;8.51;100.00
12987;BME280;58897;51.960;5.582;2023-03-04T09:14:18;102272.31;;;8.56;100.00
12987;BME280;58897;51.960;5.582;2023-03-04T09:16:45;102268.16;;;8.16;100.00
12987;BME280;58897;51.960;5.582;2023-03-04T09:19:11;102265.88;;;8.22;100.00
12987;BME280;58897;51.960;5.582;2023-03-04T09:21:38;102279.03;;;8.50;100.00
12987;BME280;58897;51.960;5.582;2023-03-04T09:24:04;102272.59;;;8.40;100.00
12987;BME280;58897;51.960;5.582;2023-03-04T09:26:31;102264.88;;;8.36;100.00
12987;BME280;58897;51.960;5.582;2023-03-04T09:28:59;102273.47;;;8.04;100.00
12987;BME280;58897;51.960;5.582;2023-03-04T09:31:27;102269.78;;;7.82;100.00
12987;BME280;58897;51.960;5.582;2023-03-04T09:33:55;102273.34;;;8.06;100.00
12987;BME280;58897;51.960;5.582;2023-03-04T09:36:22;102272.75;;;8.39;100.00
12987;BME280;58897;51.960;5.582;2023-03-04T09:38:49;102272.34;;;8.20;100.00
12987;BME280;58897;51.960;5.582;2023-03-04T09:41:19;102268.75;;;8.08;100.00
12987;BME280;58897;51.960;5.582;2023-03-04T09:43:48;102272.56;;;7.80;100.00
12987;BME280;58897;51.960;5.582;2023-03-04T09:46:20;102269.13;;;8.15;100.00
12987;BME280;58897;51.960;5.582;2023-03-04T09:48:50;102257.94;;;9.36;100.00
12987;BME280;58897;51.960;5.582;2023-03-04T09:54:09;102240.91;;;9.80;100.00
12987;BME280;58897;51.960;5.582;2023-03-04T09:56:38;102244.34;;;9.60;100.00
12987;BME280;58897;51.960;5.582;2023-03-04T09:59:22;102241.19;;;9.44;100.00
12987;BME280;58897;51.960;5.582;2023-03-04T10:01:53;102241.78;;;9.58;100.00
12987;BME280;58897;51.960;5.582;2023-03-04T10:04:40;102246.94;;;9.72;100.00
12987;BME280;58897;51.960;5.582;2023-03-04T10:07:17;102242.25;;;9.41;100.00
12987;BME280;58897;51.960;5.582;2023-03-04T10:12:18;102243.81;;;8.64;100.00
12987;BME280;58897;51.960;5.582;2023-03-04T10:15:17;102245.84;;;8.85;100.00
12987;BME280;58897;51.960;5.582;2023-03-04T10:17:52;102239.66;;;9.06;100.00
12987;BME280;58897;51.960;5.582;2023-03-04T10:20:23;102239.06;;;9.47;100.00
12987;BME280;58897;51.960;5.582;2023-03-04T10:22:56;102235.16;;;9.29;100.00
12987;BME280;58897;51.960;5.582;2023-03-04T10:25:31;102248.94;;;8.91;100.00
12987;BME280;58897;51.960;5.582;2023-03-04T10:28:17;102243.25;;;8.72;100.00
12987;BME280;58897;51.960;5.582;2023-03-04T10:33:32;102242.94;;;9.99;100.00
12987;BME280;58897;51.960;5.582;2023-03-04T10:36:31;102232.88;;;10.96;100.00
12987;BME280;58897;51.960;5.582;2023-03-04T10:39:05;102221.09;;;10.56;100.00
12987;BME280;58897;51.960;5.582;2023-03-04T10:41:33;102226.63;;;10.00;100.00
12987;BME280;58897;51.960;5.582;2023-03-04T10:46:38;102221.78;;;9.39;100.00
12987;BME280;58897;51.960;5.582;2023-03-04T10:49:05;102232.69;;;9.37;100.00
12987;BME280;58897;51.960;5.582;2023-03-04T10:51:31;102233.44;;;9.39;100.00
12987;BME280;58897;51.960;5.582;2023-03-04T10:54:10;102224.84;;;9.23;100.00
12987;BME280;58897;51.960;5.582;2023-03-04T10:59:43;102230.94;;;9.03;100.00
12987;BME280;58897;51.960;5.582;2023-03-04T11:04:48;102232.19;;;8.99;100.00
12987;BME280;58897;51.960;5.582;2023-03-04T11:07:15;102224.00;;;9.22;100.00
12987;BME280;58897;51.960;5.582;2023-03-04T11:09:43;102218.59;;;9.67;100.00
12987;BME280;58897;51.960;5.582;2023-03-04T11:12:13;102206.91;;;10.63;100.00
12987;BME280;58897;51.960;5.582;2023-03-04T11:14:44;102198.00;;;11.74;100.00
12987;BME280;58897;51.960;5.582;2023-03-04T11:19:54;102191.56;;;10.64;100.00
12987;BME280;58897;51.960;5.582;2023-03-04T11:22:23;102205.03;;;10.11;100.00
12987;BME280;58897;51.960;5.582;2023-03-04T11:25:24;102206.09;;;9.66;100.00
12987;BME280;58897;51.960;5.582;2023-03-04T11:28:01;102215.41;;;9.51;100.00
12987;BME280;58897;51.960;5.582;2023-03-04T11:30:34;102213.94;;;9.80;100.00
12987;BME280;58897;51.960;5.582;2023-03-04T11:33:12;102201.56;;;10.20;100.00
12987;BME280;58897;51.960;5.582;2023-03-04T11:38:53;102186.94;;;10.54;100.00
12987;BME280;58897;51.960;5.582;2023-03-04T11:43:50;102190.75;;;10.20;100.00
12987;BME280;58897;51.960;5.582;2023-03-04T11:46:23;102184.53;;;10.40;100.00
12987;BME280;58897;51.960;5.582;2023-03-04T12:09:03;102209.41;;;8.57;100.00
12987;BME280;58897;51.960;5.582;2023-03-04T12:19:45;102172.50;;;9.59;100.00
12987;BME280;58897;51.960;5.582;2023-03-04T12:22:46;102162.41;;;10.46;100.00
12987;BME280;58897;51.960;5.582;2023-03-04T12:28:30;102145.09;;;11.21;100.00
12987;BME280;58897;51.960;5.582;2023-03-04T12:33:53;102133.69;;;12.81;100.00
12987;BME280;58897;51.960;5.582;2023-03-04T12:36:47;102126.22;;;11.99;100.00
12987;BME280;58897;51.960;5.582;2023-03-04T12:39:38;102126.53;;;12.15;100.00
12987;BME280;58897;51.960;5.582;2023-03-04T12:45:12;102124.19;;;11.72;100.00
12987;BME280;58897;51.960;5.582;2023-03-04T12:56:49;102109.13;;;11.89;100.00
12987;BME280;58897;51.960;5.582;2023-03-04T12:59:20;102112.34;;;11.24;100.00
12987;BME280;58897;51.960;5.582;2023-03-04T13:01:55;102109.66;;;10.42;100.00
12987;BME280;58897;51.960;5.582;2023-03-04T13:07:15;102102.31;;;10.13;100.00
12987;BME280;58897;51.960;5.582;2023-03-04T13:09:56;102104.56;;;10.28;100.00
12987;BME280;58897;51.960;5.582;2023-03-04T13:12:24;102099.69;;;10.64;100.00
12987;BME280;58897;51.960;5.582;2023-03-04T13:15:24;102100.63;;;11.13;100.00
12987;BME280;58897;51.960;5.582;2023-03-04T13:18:00;102096.19;;;11.52;100.00
12987;BME280;58897;51.960;5.582;2023-03-04T13:20:40;102093.63;;;11.60;100.00
12987;BME280;58897;51.960;5.582;2023-03-04T13:25:45;102083.97;;;11.67;100.00
12987;BME280;58897;51.960;5.582;2023-03-04T13:28:19;102082.09;;;11.09;100.00
12987;BME280;58897;51.960;5.582;2023-03-04T13:35:50;102077.66;;;11.38;100.00
12987;BME280;58897;51.960;5.582;2023-03-04T13:43:47;102074.50;;;10.63;100.00
12987;BME280;58897;51.960;5.582;2023-03-04T13:56:47;102082.84;;;9.66;100.00
12987;BME280;58897;51.960;5.582;2023-03-04T14:01:51;102089.00;;;9.89;100.00
12987;BME280;58897;51.960;5.582;2023-03-04T14:04:37;102091.31;;;9.93;100.00
12987;BME280;58897;51.960;5.582;2023-03-04T14:07:26;102086.00;;;9.71;100.00
12987;BME280;58897;51.960;5.582;2023-03-04T14:10:03;102085.69;;;9.54;100.00
12987;BME280;58897;51.960;5.582;2023-03-04T14:12:40;102089.75;;;9.37;100.00
12987;BME280;58897;51.960;5.582;2023-03-04T14:17:43;102089.91;;;9.13;100.00
12987;BME280;58897;51.960;5.582;2023-03-04T14:20:26;102083.34;;;9.60;100.00
12987;BME280;58897;51.960;5.582;2023-03-04T14:22:54;102081.66;;;9.48;100.00
12987;BME280;58897;51.960;5.582;2023-03-04T14:25:27;102078.66;;;9.62;100.00
12987;BME280;58897;51.960;5.582;2023-03-04T14:30:37;102081.31;;;9.73;100.00
12987;BME280;58897;51.960;5.582;2023-03-04T14:33:18;102083.31;;;9.71;100.00
12987;BME280;58897;51.960;5.582;2023-03-04T14:35:48;102071.81;;;9.58;100.00
12987;BME280;58897;51.960;5.582;2023-03-04T14:38:22;102077.00;;;9.39;100.00
12987;BME280;58897;51.960;5.582;2023-03-04T14:40:57;102072.16;;;9.22;100.00
12987;BME280;58897;51.960;5.582;2023-03-04T14:43:28;102076.72;;;8.88;100.00
12987;BME280;58897;51.960;5.582;2023-03-04T14:45:59;102071.56;;;8.85;100.00